Time;durP1;ratioP1;P1;durP2;ratioP2;P2;SDS_P1;SDS_P2;PMS_P1;PMS_P2;Temp;Humidity;BMP_temperature;BMP_pressure;BME280_temperature;BME280_humidity;BME280_pressure;Samples;Min_cycle;Max_cycle;Signal;HPM_P1;HPM_P2
2023/01/06 00:02:20;;;;;;;;;;;15.00;63.50;;;;;;5154265;27;20392;-65
2023/01/06 00:04:45;;;;;;;;;;;15.00;63.60;;;;;;5154719;27;19922;-70
2023/01/06 00:07:11;;;;;;;;;;;15.00;63.60;;;;;;5136285;27;19919;-65
2023/01/06 00:09:37;;;;;;;;;;;15.00;63.60;;;;;;5136114;27;20477;-65
2023/01/06 00:12:03;;;;;;;;;;;15.00;63.60;;;;;;5154597;27;19923;-65
2023/01/06 00:14:28;;;;;;;;;;;15.00;63.60;;;;;;5136068;27;19987;-71
2023/01/06 00:16:54;;;;;;;;;;;15.00;63.60;;;;;;5135832;27;19962;-65
2023/01/06 00:19:19;;;;;;;;;;;15.00;63.60;;;;;;5154775;27;20283;-65
2023/01/06 00:21:45;;;;;;;;;;;15.00;63.60;;;;;;5154548;27;20051;-65
2023/01/06 00:24:11;;;;;;;;;;;14.90;63.60;;;;;;5135892;27;19926;-65
2023/01/06 00:26:36;;;;;;;;;;;15.00;63.70;;;;;;5135750;27;19942;-71
2023/01/06 00:29:02;;;;;;;;;;;15.00;63.70;;;;;;5135815;27;20007;-65
2023/01/06 00:31:28;;;;;;;;;;;14.90;63.60;;;;;;5135908;27;19919;-71
2023/01/06 00:33:55;;;;;;;;;;;15.00;63.70;;;;;;5154248;27;19934;-65
2023/01/06 00:36:21;;;;;;;;;;;14.90;63.70;;;;;;5135996;27;20331;-65
2023/01/06 00:38:47;;;;;;;;;;;15.00;63.70;;;;;;5135993;27;19925;-71
2023/01/06 00:43:59;;;;;;;;;;;14.90;63.70;;;;;;5135493;27;19919;-66
2023/01/06 00:46:27;;;;;;;;;;;14.90;63.70;;;;;;5135739;27;19968;-65
2023/01/06 00:48:54;;;;;;;;;;;14.90;63.70;;;;;;5135844;27;19930;-65
2023/01/06 00:51:19;;;;;;;;;;;14.90;63.70;;;;;;5135490;27;19964;-65
2023/01/06 00:53:45;;;;;;;;;;;15.00;63.80;;;;;;5135182;27;19923;-65
2023/01/06 00:56:10;;;;;;;;;;;15.00;63.80;;;;;;5154019;27;19923;-71
2023/01/06 00:58:36;;;;;;;;;;;14.90;64.50;;;;;;5135618;27;19919;-65
2023/01/06 01:01:04;;;;;;;;;;;14.90;63.70;;;;;;5135706;27;19919;-71
2023/01/06 01:03:30;;;;;;;;;;;14.90;63.80;;;;;;5135362;27;19922;-65
2023/01/06 01:05:59;;;;;;;;;;;14.90;63.80;;;;;;5135425;27;19995;-65
2023/01/06 01:08:25;;;;;;;;;;;14.90;63.80;;;;;;5135600;27;20072;-65
2023/01/06 01:10:51;;;;;;;;;;;14.90;63.80;;;;;;5135384;27;19927;-65
2023/01/06 01:13:17;;;;;;;;;;;14.90;63.80;;;;;;5153738;27;20285;-65
2023/01/06 01:15:43;;;;;;;;;;;14.90;63.80;;;;;;5157299;27;19930;-67
2023/01/06 01:18:08;;;;;;;;;;;15.00;63.90;;;;;;5158162;27;19926;-72
2023/01/06 01:20:34;;;;;;;;;;;14.90;63.90;;;;;;5157909;27;20388;-72
2023/01/06 01:23:00;;;;;;;;;;;15.00;63.90;;;;;;5157864;27;19926;-66
2023/01/06 01:25:25;;;;;;;;;;;15.00;64.00;;;;;;5157966;27;20017;-66
2023/01/06 01:27:51;;;;;;;;;;;14.90;63.90;;;;;;5139128;27;19926;-66
2023/01/06 01:30:16;;;;;;;;;;;15.00;64.00;;;;;;5139124;27;19919;-66
2023/01/06 01:32:42;;;;;;;;;;;14.90;63.90;;;;;;5157643;27;19923;-66
2023/01/06 01:35:07;;;;;;;;;;;14.90;63.90;;;;;;5157790;27;19926;-66
2023/01/06 01:37:33;;;;;;;;;;;14.90;63.90;;;;;;5139065;27;19923;-66
2023/01/06 01:39:59;;;;;;;;;;;14.90;63.90;;;;;;5157607;27;19919;-66
2023/01/06 01:42:24;;;;;;;;;;;14.90;64.00;;;;;;5157620;27;20346;-66
2023/01/06 01:44:58;;;;;;;;;;;14.90;63.90;;;;;;5139224;27;20282;-66
2023/01/06 01:47:44;;;;;;;;;;;14.90;63.90;;;;;;5157345;27;20013;-66
2023/01/06 01:50:13;;;;;;;;;;;14.90;63.90;;;;;;5138550;27;20457;-66
2023/01/06 01:52:40;;;;;;;;;;;14.90;63.90;;;;;;5156975;27;19930;-66
2023/01/06 01:55:06;;;;;;;;;;;14.90;63.90;;;;;;5157272;27;19919;-72
2023/01/06 01:57:38;;;;;;;;;;;14.90;63.90;;;;;;5157155;27;19989;-65
2023/01/06 02:00:05;;;;;;;;;;;14.90;63.90;;;;;;5138864;27;19920;-65
2023/01/06 02:02:30;;;;;;;;;;;14.90;63.90;;;;;;5157354;27;20298;-66
2023/01/06 02:04:56;;;;;;;;;;;14.90;63.90;;;;;;5138832;27;19923;-66
2023/01/06 02:07:23;;;;;;;;;;;14.90;64.00;;;;;;5138539;27;20440;-66
2023/01/06 02:12:29;;;;;;;;;;;14.90;63.90;;;;;;5089919;28;19912;-65
2023/01/06 02:14:54;;;;;;;;;;;14.90;64.00;;;;;;5089849;28;19920;-65
2023/01/06 02:25:49;;;;;;;;;;;14.90;64.00;;;;;;5127393;27;1864665;-65
2023/01/06 02:28:25;;;;;;;;;;;14.90;64.00;;;;;;5173968;27;19962;-65
2023/01/06 02:31:10;;;;;;;;;;;14.90;64.00;;;;;;5174460;27;19915;-65
2023/01/06 02:33:43;;;;;;;;;;;14.90;64.00;;;;;;5174052;27;19915;-65
2023/01/06 02:39:09;;;;;;;;;;;14.90;64.10;;;;;;5110276;27;19936;-66
2023/01/06 02:41:42;;;;;;;;;;;14.80;64.00;;;;;;5108905;28;19966;-65
2023/01/06 02:44:27;;;;;;;;;;;14.90;64.10;;;;;;5108907;28;19916;-65
2023/01/06 02:47:10;;;;;;;;;;;14.90;64.00;;;;;;5108691;28;19916;-65
2023/01/06 02:49:41;;;;;;;;;;;14.90;64.10;;;;;;5108848;28;19919;-66
2023/01/06 02:55:04;;;;;;;;;;;14.90;64.00;;;;;;5127530;27;1867811;-65
2023/01/06 02:57:49;;;;;;;;;;;14.80;64.00;;;;;;5174288;27;20433;-65
2023/01/06 03:02:57;;;;;;;;;;;14.90;64.00;;;;;;5089587;28;19931;-65
2023/01/06 03:05:23;;;;;;;;;;;14.90;64.10;;;;;;5088526;28;20019;-65
2023/01/06 03:07:49;;;;;;;;;;;15.00;64.10;;;;;;5089510;28;19955;-65
2023/01/06 03:10:16;;;;;;;;;;;14.90;64.10;;;;;;5088536;28;20402;-65
2023/01/06 03:12:47;;;;;;;;;;;14.90;64.10;;;;;;5089658;28;19947;-65
2023/01/06 03:15:12;;;;;;;;;;;14.90;64.10;;;;;;5088401;28;19927;-65
2023/01/06 03:17:38;;;;;;;;;;;14.80;64.00;;;;;;5088425;28;19921;-65
2023/01/06 03:20:04;;;;;;;;;;;15.00;64.10;;;;;;5088492;28;19921;-65
2023/01/06 03:22:30;;;;;;;;;;;14.80;64.00;;;;;;5089202;28;19950;-65
2023/01/06 03:24:56;;;;;;;;;;;14.80;64.00;;;;;;5089612;28;20368;-65
2023/01/06 03:27:23;;;;;;;;;;;14.90;64.10;;;;;;5089088;28;19955;-66
2023/01/06 03:29:48;;;;;;;;;;;14.80;64.00;;;;;;5088435;28;19999;-71
2023/01/06 03:32:21;;;;;;;;;;;14.90;64.10;;;;;;5089030;28;20344;-65
2023/01/06 03:40:17;;;;;;;;;;;14.90;64.10;;;;;;5089864;28;19934;-72
2023/01/06 03:51:08;;;;;;;;;;;14.90;64.10;;;;;;5089885;28;20278;-65
2023/01/06 03:56:20;;;;;;;;;;;14.80;64.00;;;;;;5089844;28;20270;-65
2023/01/06 03:58:49;;;;;;;;;;;14.80;64.10;;;;;;5088532;28;19916;-65
2023/01/06 04:01:15;;;;;;;;;;;14.80;64.10;;;;;;5088524;28;19917;-65
2023/01/06 04:03:43;;;;;;;;;;;14.80;64.10;;;;;;5088252;28;19916;-65
2023/01/06 04:06:08;;;;;;;;;;;14.80;64.10;;;;;;5089639;28;19986;-65
2023/01/06 04:08:34;;;;;;;;;;;14.80;64.10;;;;;;5088040;28;19920;-65
2023/01/06 04:10:59;;;;;;;;;;;14.90;64.20;;;;;;5088586;28;19929;-65
2023/01/06 04:13:25;;;;;;;;;;;14.80;64.10;;;;;;5088516;28;20364;-65
2023/01/06 04:15:51;;;;;;;;;;;14.80;64.10;;;;;;5088132;28;19974;-66
2023/01/06 04:18:16;;;;;;;;;;;14.80;64.10;;;;;;5089301;28;19928;-65
2023/01/06 04:20:42;;;;;;;;;;;14.80;64.10;;;;;;5089573;28;19928;-65
2023/01/06 04:23:07;;;;;;;;;;;14.80;64.10;;;;;;5089415;28;20269;-66
2023/01/06 04:25:33;;;;;;;;;;;14.80;64.10;;;;;;5088387;28;20489;-65
2023/01/06 04:27:58;;;;;;;;;;;14.80;64.20;;;;;;5089365;28;20304;-65
2023/01/06 04:30:24;;;;;;;;;;;14.80;64.10;;;;;;5088030;28;19924;-65
2023/01/06 04:32:49;;;;;;;;;;;14.80;64.10;;;;;;5088310;28;19920;-65
2023/01/06 04:35:15;;;;;;;;;;;14.80;64.10;;;;;;5089034;28;19924;-65
2023/01/06 04:37:40;;;;;;;;;;;14.80;64.10;;;;;;5104902;28;19921;-65
2023/01/06 04:40:06;;;;;;;;;;;14.80;64.10;;;;;;5089243;28;20019;-65
2023/01/06 04:43:02;;;;;;;;;;;14.80;64.10;;;;;;5087872;28;19921;-65
2023/01/06 04:45:17;;;;;;;;;;;14.80;64.10;;;;;;5088793;28;19920;-65
2023/01/06 04:47:43;;;;;;;;;;;14.80;64.10;;;;;;5087641;28;19927;-65
2023/01/06 04:50:09;;;;;;;;;;;14.80;64.10;;;;;;5087649;28;19927;-65
2023/01/06 04:52:34;;;;;;;;;;;14.90;64.20;;;;;;5088895;28;19927;-65
2023/01/06 04:55:00;;;;;;;;;;;14.80;64.90;;;;;;5098867;28;20291;-65
2023/01/06 04:57:25;;;;;;;;;;;14.80;64.10;;;;;;5090915;28;20091;-65
2023/01/06 04:59:51;;;;;;;;;;;14.80;64.10;;;;;;5091019;28;19920;-65
2023/01/06 05:02:16;;;;;;;;;;;14.80;64.10;;;;;;5090846;28;19924;-65
2023/01/06 05:04:42;;;;;;;;;;;14.80;64.20;;;;;;5090712;28;19960;-65
2023/01/06 05:07:07;;;;;;;;;;;14.80;64.10;;;;;;5097746;28;19920;-65
2023/01/06 05:09:33;;;;;;;;;;;14.80;64.10;;;;;;5077436;28;19920;-66
2023/01/06 05:11:58;;;;;;;;;;;14.80;64.20;;;;;;5077090;28;20024;-65
2023/01/06 05:14:24;;;;;;;;;;;14.80;64.10;;;;;;5077275;28;20028;-65
2023/01/06 05:16:49;;;;;;;;;;;14.80;64.20;;;;;;5060435;28;20269;-65
2023/01/06 05:19:15;;;;;;;;;;;14.80;64.10;;;;;;5095111;28;19942;-65
2023/01/06 05:21:40;;;;;;;;;;;14.80;64.10;;;;;;5076887;28;19924;-66
2023/01/06 05:24:07;;;;;;;;;;;14.80;64.10;;;;;;5076933;28;19924;-65
2023/01/06 05:26:33;;;;;;;;;;;14.80;64.10;;;;;;5077080;28;19924;-72
2023/01/06 05:28:58;;;;;;;;;;;14.80;64.20;;;;;;5077061;28;20422;-65
2023/01/06 05:31:24;;;;;;;;;;;14.80;64.10;;;;;;5076680;28;20375;-65
2023/01/06 05:33:50;;;;;;;;;;;14.80;64.10;;;;;;5094735;28;19946;-65
2023/01/06 05:36:16;;;;;;;;;;;14.80;64.10;;;;;;5076973;28;19920;-65
2023/01/06 05:38:42;;;;;;;;;;;14.80;64.10;;;;;;5076945;28;19965;-65
2023/01/06 05:41:07;;;;;;;;;;;14.80;64.10;;;;;;5094809;28;20050;-72
2023/01/06 05:43:34;;;;;;;;;;;14.80;64.10;;;;;;5094690;28;19920;-66
2023/01/06 05:46:03;;;;;;;;;;;14.80;64.10;;;;;;5076749;28;20368;-65
2023/01/06 05:48:28;;;;;;;;;;;14.80;64.10;;;;;;5076395;28;19920;-66
2023/01/06 05:51:02;;;;;;;;;;;14.80;64.10;;;;;;5076362;28;19945;-66
2023/01/06 05:53:29;;;;;;;;;;;14.80;64.10;;;;;;5094471;28;19965;-71
2023/01/06 05:55:57;;;;;;;;;;;14.80;64.10;;;;;;5076106;28;19931;-65
2023/01/06 05:58:23;;;;;;;;;;;14.80;64.10;;;;;;5094282;28;19981;-65
2023/01/06 06:00:48;;;;;;;;;;;14.80;64.10;;;;;;5076496;28;20326;-72
2023/01/06 06:03:14;;;;;;;;;;;14.80;64.80;;;;;;5094178;28;19920;-65
2023/01/06 06:05:39;;;;;;;;;;;14.80;64.10;;;;;;5076225;28;20302;-66
2023/01/06 06:08:05;;;;;;;;;;;14.80;64.10;;;;;;5075960;28;19973;-65
2023/01/06 06:10:30;;;;;;;;;;;14.70;64.00;;;;;;5094341;28;19924;-65
2023/01/06 06:12:56;;;;;;;;;;;14.80;64.20;;;;;;5094048;28;19924;-66
2023/01/06 06:15:21;;;;;;;;;;;14.70;64.10;;;;;;5075911;28;19924;-66
2023/01/06 06:17:47;;;;;;;;;;;14.70;64.10;;;;;;5075069;28;19920;-66
2023/01/06 06:20:13;;;;;;;;;;;14.80;64.10;;;;;;5075700;28;19920;-66
2023/01/06 06:22:38;;;;;;;;;;;14.80;64.10;;;;;;5076020;28;19927;-66
2023/01/06 06:25:04;;;;;;;;;;;14.70;64.10;;;;;;5093916;28;19927;-67
2023/01/06 06:27:29;;;;;;;;;;;14.70;64.10;;;;;;5093752;28;19920;-73
2023/01/06 06:29:55;;;;;;;;;;;14.70;64.10;;;;;;5075721;28;20384;-67
2023/01/06 06:32:20;;;;;;;;;;;14.80;64.10;;;;;;5075625;28;19928;-67
2023/01/06 06:34:46;;;;;;;;;;;14.80;64.20;;;;;;5075390;28;19928;-66
2023/01/06 06:37:11;;;;;;;;;;;14.70;64.10;;;;;;5075624;28;20093;-66
2023/01/06 06:39:37;;;;;;;;;;;14.80;64.10;;;;;;5093493;28;19959;-67
2023/01/06 06:42:02;;;;;;;;;;;14.70;64.10;;;;;;5093713;28;19920;-67
2023/01/06 06:44:28;;;;;;;;;;;14.80;64.20;;;;;;5075575;28;19920;-66
2023/01/06 06:46:53;;;;;;;;;;;14.70;64.20;;;;;;5075295;28;19965;-66
2023/01/06 06:49:19;;;;;;;;;;;14.70;64.20;;;;;;5093389;28;20014;-67
2023/01/06 06:51:46;;;;;;;;;;;14.70;64.10;;;;;;5075475;28;19920;-67
2023/01/06 06:54:12;;;;;;;;;;;14.70;64.20;;;;;;5075157;28;20273;-72
2023/01/06 06:56:37;;;;;;;;;;;14.70;64.20;;;;;;5093011;28;19969;-66
2023/01/06 06:59:03;;;;;;;;;;;14.70;64.20;;;;;;5074965;28;20007;-67
2023/01/06 07:01:30;;;;;;;;;;;14.70;64.20;;;;;;5093264;28;19928;-66
2023/01/06 07:03:56;;;;;;;;;;;14.80;64.20;;;;;;5093067;28;20005;-67
2023/01/06 07:06:22;;;;;;;;;;;14.70;64.20;;;;;;5074912;28;19963;-73
2023/01/06 07:08:47;;;;;;;;;;;14.70;64.20;;;;;;5075129;28;19924;-66
2023/01/06 07:11:13;;;;;;;;;;;14.70;64.30;;;;;;5093181;28;19920;-66
2023/01/06 07:13:38;;;;;;;;;;;14.70;64.30;;;;;;5093094;28;20417;-66
2023/01/06 07:16:04;;;;;;;;;;;14.70;64.30;;;;;;5092916;28;20288;-66
2023/01/06 07:18:30;;;;;;;;;;;14.70;64.30;;;;;;5092815;28;19928;-72
2023/01/06 07:20:55;;;;;;;;;;;14.80;64.40;;;;;;5092759;28;20363;-66
2023/01/06 07:23:22;;;;;;;;;;;14.70;64.40;;;;;;5074992;28;20368;-66
2023/01/06 07:25:51;;;;;;;;;;;14.70;64.40;;;;;;5092644;28;19974;-66
2023/01/06 07:28:17;;;;;;;;;;;14.70;64.40;;;;;;5092851;28;19971;-66
2023/01/06 07:30:43;;;;;;;;;;;14.70;64.40;;;;;;5092505;28;19967;-67
2023/01/06 07:33:08;;;;;;;;;;;14.70;64.50;;;;;;5074606;28;19926;-66
2023/01/06 07:35:34;;;;;;;;;;;14.70;64.50;;;;;;5074409;28;19920;-66
2023/01/06 07:38:01;;;;;;;;;;;14.70;64.50;;;;;;5074465;28;20014;-66
2023/01/06 07:40:26;;;;;;;;;;;14.70;64.50;;;;;;5092580;28;20086;-66
2023/01/06 07:42:52;;;;;;;;;;;14.70;64.50;;;;;;5074508;28;19967;-66
2023/01/06 07:45:17;;;;;;;;;;;14.70;64.50;;;;;;5074703;28;20069;-67
2023/01/06 07:47:43;;;;;;;;;;;14.70;64.50;;;;;;5092592;28;20371;-66
2023/01/06 07:50:08;;;;;;;;;;;14.70;64.60;;;;;;5074119;28;20367;-66
2023/01/06 07:52:34;;;;;;;;;;;14.70;64.60;;;;;;5074571;28;20370;-66
2023/01/06 07:54:59;;;;;;;;;;;14.70;64.60;;;;;;5091981;28;19928;-66
2023/01/06 07:57:26;;;;;;;;;;;14.70;64.60;;;;;;5074259;28;20003;-66
2023/01/06 07:59:52;;;;;;;;;;;14.70;64.60;;;;;;5074595;28;19924;-66
2023/01/06 08:02:18;;;;;;;;;;;14.70;64.70;;;;;;5092315;28;19927;-66
2023/01/06 08:04:43;;;;;;;;;;;14.70;64.60;;;;;;5074512;28;19963;-72
2023/01/06 08:07:09;;;;;;;;;;;14.70;64.70;;;;;;5092176;28;20372;-66
2023/01/06 08:09:34;;;;;;;;;;;14.70;64.70;;;;;;5074522;28;20292;-66
2023/01/06 08:12:00;;;;;;;;;;;14.70;64.70;;;;;;5074462;28;19963;-72
2023/01/06 08:14:25;;;;;;;;;;;14.70;64.80;;;;;;5092152;28;20382;-66
2023/01/06 08:16:51;;;;;;;;;;;14.70;64.80;;;;;;5092196;28;19920;-66
2023/01/06 08:19:16;;;;;;;;;;;14.70;64.80;;;;;;5073875;28;20330;-66
2023/01/06 08:21:42;;;;;;;;;;;14.70;64.80;;;;;;5073356;28;19920;-66
2023/01/06 08:24:08;;;;;;;;;;;14.70;64.90;;;;;;5073732;28;19920;-66
2023/01/06 08:26:33;;;;;;;;;;;14.70;64.90;;;;;;5074087;28;19924;-67
2023/01/06 08:28:59;;;;;;;;;;;14.70;64.90;;;;;;5073748;28;20409;-66
2023/01/06 08:31:24;;;;;;;;;;;14.70;64.90;;;;;;5091958;28;19938;-66
2023/01/06 08:33:50;;;;;;;;;;;14.70;64.80;;;;;;5091971;28;19920;-72
2023/01/06 08:36:17;;;;;;;;;;;14.70;64.90;;;;;;5073862;28;19924;-66
2023/01/06 08:38:43;;;;;;;;;;;14.60;64.80;;;;;;5091814;28;19943;-66
2023/01/06 08:41:09;;;;;;;;;;;14.60;64.80;;;;;;5074478;28;19920;-66
2023/01/06 08:43:35;;;;;;;;;;;14.70;64.90;;;;;;5095589;28;19920;-70
2023/01/06 08:46:02;;;;;;;;;;;14.60;64.80;;;;;;5077434;28;19963;-66
2023/01/06 08:48:28;;;;;;;;;;;14.70;64.80;;;;;;5095220;28;20448;-66
2023/01/06 08:50:55;;;;;;;;;;;14.70;64.80;;;;;;5078047;28;20287;-66
2023/01/06 08:53:21;;;;;;;;;;;14.60;64.80;;;;;;5077413;28;19927;-66
2023/01/06 08:55:46;;;;;;;;;;;14.70;64.80;;;;;;5077225;28;19936;-66
2023/01/06 08:58:12;;;;;;;;;;;14.60;64.80;;;;;;5077163;28;19943;-66
2023/01/06 09:00:39;;;;;;;;;;;14.60;64.70;;;;;;5095282;28;19920;-66
2023/01/06 09:03:04;;;;;;;;;;;14.60;64.70;;;;;;5095257;28;20363;-66
2023/01/06 09:05:30;;;;;;;;;;;14.60;64.70;;;;;;5077089;28;19970;-66
2023/01/06 09:07:55;;;;;;;;;;;14.60;64.60;;;;;;5077144;28;19920;-66
2023/01/06 09:10:21;;;;;;;;;;;14.60;64.70;;;;;;5094987;28;19972;-66
2023/01/06 09:12:47;;;;;;;;;;;14.60;64.70;;;;;;5095103;28;19924;-66
2023/01/06 09:15:12;;;;;;;;;;;14.70;64.70;;;;;;5076998;28;19924;-66
2023/01/06 09:17:38;;;;;;;;;;;14.60;64.60;;;;;;5076971;28;19928;-66
2023/01/06 09:20:04;;;;;;;;;;;14.60;64.60;;;;;;5076944;28;19919;-66
2023/01/06 09:22:30;;;;;;;;;;;14.60;64.60;;;;;;5076826;28;19920;-66
2023/01/06 09:24:55;;;;;;;;;;;14.60;64.60;;;;;;5077004;28;19920;-66
2023/01/06 09:27:21;;;;;;;;;;;14.60;64.60;;;;;;5094706;28;19971;-66
2023/01/06 09:29:46;;;;;;;;;;;14.60;64.60;;;;;;5094831;28;20399;-66
2023/01/06 09:32:12;;;;;;;;;;;14.70;64.60;;;;;;5076584;28;20394;-66
2023/01/06 09:34:37;;;;;;;;;;;14.60;64.50;;;;;;5076578;28;19924;-66
2023/01/06 09:37:03;;;;;;;;;;;14.60;64.50;;;;;;5076650;28;19927;-66
2023/01/06 09:39:29;;;;;;;;;;;14.60;64.50;;;;;;5094591;28;19920;-66
2023/01/06 09:44:42;;;;;;;;;;;14.60;64.50;;;;;;5110099;27;20363;-65
2023/01/06 09:47:10;;;;;;;;;;;14.60;64.50;;;;;;5108652;28;19966;-65
2023/01/06 09:52:22;;;;;;;;;;;14.60;64.40;;;;;;5110663;27;19914;-65
2023/01/06 09:54:53;;;;;;;;;;;14.60;64.40;;;;;;5108908;28;19916;-65
2023/01/06 09:57:21;;;;;;;;;;;14.60;64.40;;;;;;5108890;28;19916;-71
2023/01/06 09:59:51;;;;;;;;;;;14.60;64.30;;;;;;5108747;28;19916;-65
2023/01/06 10:02:21;;;;;;;;;;;14.60;64.30;;;;;;5110193;28;20295;-71
2023/01/06 10:04:46;;;;;;;;;;;14.60;64.30;;;;;;5108987;28;19923;-65
2023/01/06 10:07:18;;;;;;;;;;;14.60;64.30;;;;;;5143353;27;20322;-65
2023/01/06 10:09:53;;;;;;;;;;;14.60;64.30;;;;;;5108973;28;20003;-65
2023/01/06 10:12:38;;;;;;;;;;;14.60;64.30;;;;;;5108511;28;19932;-65
2023/01/06 10:15:23;;;;;;;;;;;14.60;64.20;;;;;;5108455;28;20375;-71
2023/01/06 10:17:58;;;;;;;;;;;14.60;64.20;;;;;;5109614;28;20440;-65
2023/01/06 10:23:27;;;;;;;;;;;14.60;64.20;;;;;;5110293;27;19912;-65
2023/01/06 10:25:53;;;;;;;;;;;14.60;64.10;;;;;;5108565;28;20022;-65
2023/01/06 10:28:35;;;;;;;;;;;14.60;64.10;;;;;;5110189;28;19973;-65
2023/01/06 10:31:03;;;;;;;;;;;14.60;64.10;;;;;;5109109;28;20321;-65
2023/01/06 10:33:30;;;;;;;;;;;14.60;64.10;;;;;;5109186;28;19973;-65
2023/01/06 10:35:57;;;;;;;;;;;14.60;64.10;;;;;;5108877;28;19927;-72
2023/01/06 10:38:26;;;;;;;;;;;14.60;64.10;;;;;;5108685;28;19973;-65
2023/01/06 10:40:52;;;;;;;;;;;14.60;64.00;;;;;;5108791;28;19930;-65
2023/01/06 10:43:21;;;;;;;;;;;14.60;64.00;;;;;;5110087;28;20049;-65
2023/01/06 10:45:47;;;;;;;;;;;14.60;64.00;;;;;;5108937;28;20379;-65
2023/01/06 10:48:16;;;;;;;;;;;14.60;64.00;;;;;;5108441;28;19920;-65
2023/01/06 10:50:42;;;;;;;;;;;14.60;64.00;;;;;;5108834;28;19920;-65
2023/01/06 10:53:12;;;;;;;;;;;14.60;64.00;;;;;;5108378;28;20023;-71
2023/01/06 11:01:05;;;;;;;;;;;14.50;63.80;;;;;;5109969;27;20368;-65
2023/01/06 11:03:31;;;;;;;;;;;14.60;63.80;;;;;;5110148;28;19928;-65
2023/01/06 11:05:59;;;;;;;;;;;14.60;63.90;;;;;;5110185;28;20369;-71
2023/01/06 11:08:24;;;;;;;;;;;14.60;64.60;;;;;;5110233;28;20287;-65
2023/01/06 11:10:51;;;;;;;;;;;14.60;63.80;;;;;;5092159;28;19920;-65
2023/01/06 11:13:38;;;;;;;;;;;14.60;63.80;;;;;;5092036;28;19920;-65
2023/01/06 11:16:05;;;;;;;;;;;14.60;63.80;;;;;;5091615;28;19927;-65
2023/01/06 11:18:32;;;;;;;;;;;14.50;63.70;;;;;;5091511;28;19931;-65
2023/01/06 11:23:42;;;;;;;;;;;14.50;63.80;;;;;;5089936;28;19938;-72
2023/01/06 11:26:13;;;;;;;;;;;14.60;63.80;;;;;;5088607;28;19926;-65
2023/01/06 11:28:39;;;;;;;;;;;14.60;64.50;;;;;;5088877;28;20330;-65
2023/01/06 11:31:07;;;;;;;;;;;14.60;63.70;;;;;;5088538;28;20404;-65
2023/01/06 11:33:34;;;;;;;;;;;14.60;63.70;;;;;;5088761;28;19920;-65
2023/01/06 11:36:05;;;;;;;;;;;14.60;63.80;;;;;;5088519;28;19974;-66
2023/01/06 11:38:39;;;;;;;;;;;14.50;63.70;;;;;;5088703;28;19920;-73
2023/01/06 11:41:06;;;;;;;;;;;14.60;63.70;;;;;;5088671;28;19921;-65
2023/01/06 11:43:32;;;;;;;;;;;14.50;63.60;;;;;;5088133;28;19924;-65
2023/01/06 11:45:59;;;;;;;;;;;14.60;63.60;;;;;;5088582;28;20372;-65
2023/01/06 11:48:33;;;;;;;;;;;14.60;63.60;;;;;;5089580;28;19974;-71
2023/01/06 11:51:00;;;;;;;;;;;14.60;63.60;;;;;;5088220;28;19975;-65
2023/01/06 11:53:28;;;;;;;;;;;14.60;63.60;;;;;;5089280;28;19927;-65
2023/01/06 11:58:38;;;;;;;;;;;14.60;63.50;;;;;;5127499;27;1868822;-65
2023/01/06 12:03:50;;;;;;;;;;;14.60;63.50;;;;;;5110277;27;20297;-65
2023/01/06 12:06:23;;;;;;;;;;;14.50;63.50;;;;;;5091930;28;19951;-65
2023/01/06 12:14:15;;;;;;;;;;;14.70;63.50;;;;;;5089969;28;19919;-65
2023/01/06 12:19:35;;;;;;;;;;;14.60;63.40;;;;;;5109629;27;19935;-71
2023/01/06 12:22:01;;;;;;;;;;;14.60;63.40;;;;;;5110182;28;19924;-65
2023/01/06 12:24:28;;;;;;;;;;;14.70;63.40;;;;;;5091871;28;20404;-65
2023/01/06 12:26:54;;;;;;;;;;;14.60;63.30;;;;;;5091894;28;19968;-65
2023/01/06 12:29:20;;;;;;;;;;;14.60;63.30;;;;;;5092003;28;19920;-65
2023/01/06 12:34:35;;;;;;;;;;;14.60;63.30;;;;;;5129458;27;1866936;-65
2023/01/06 12:37:19;;;;;;;;;;;14.60;63.30;;;;;;5174488;27;19972;-66
2023/01/06 12:42:33;;;;;;;;;;;14.60;63.20;;;;;;5110206;27;19916;-65
2023/01/06 12:45:06;;;;;;;;;;;14.50;63.20;;;;;;5107465;28;19934;-65
2023/01/06 12:47:36;;;;;;;;;;;14.60;63.20;;;;;;5107616;28;19928;-65
2023/01/06 12:50:21;;;;;;;;;;;14.60;63.20;;;;;;5106451;28;19959;-65
2023/01/06 12:52:50;;;;;;;;;;;14.60;63.20;;;;;;5141497;27;20346;-65
2023/01/06 12:55:17;;;;;;;;;;;14.50;63.10;;;;;;5107548;28;19920;-71
2023/01/06 13:00:44;;;;;;;;;;;14.60;63.20;;;;;;5109393;27;19912;-65
2023/01/06 13:05:53;;;;;;;;;;;14.60;63.10;;;;;;5126895;27;1872598;-65
2023/01/06 13:08:25;;;;;;;;;;;14.60;63.00;;;;;;5174438;27;20362;-65
2023/01/06 13:10:55;;;;;;;;;;;14.70;63.10;;;;;;5172906;27;20588;-65
2023/01/06 13:16:14;;;;;;;;;;;14.60;63.00;;;;;;5089861;28;19935;-65
2023/01/06 13:18:44;;;;;;;;;;;14.60;63.00;;;;;;5088630;28;20299;-65
2023/01/06 13:21:12;;;;;;;;;;;14.60;63.00;;;;;;5088564;28;19974;-65
2023/01/06 13:32:24;;;;;;;;;;;14.60;63.00;;;;;;5089987;28;20301;-65
2023/01/06 13:34:58;;;;;;;;;;;14.60;62.90;;;;;;5088454;28;19920;-66
2023/01/06 13:40:25;;;;;;;;;;;14.60;62.90;;;;;;5110402;27;19916;-65
2023/01/06 13:45:40;;;;;;;;;;;14.60;62.90;;;;;;5089920;28;20333;-65
2023/01/06 13:48:07;;;;;;;;;;;14.50;62.90;;;;;;5088549;28;19924;-65
2023/01/06 13:50:34;;;;;;;;;;;14.60;62.90;;;;;;5088571;28;19924;-65
2023/01/06 13:53:00;;;;;;;;;;;14.60;62.90;;;;;;5088484;28;19920;-65
2023/01/06 13:55:27;;;;;;;;;;;14.50;62.80;;;;;;5088816;28;20456;-72
2023/01/06 13:57:53;;;;;;;;;;;14.50;62.90;;;;;;5088328;28;20019;-65
2023/01/06 14:00:23;;;;;;;;;;;14.60;62.90;;;;;;5088690;28;20405;-65
2023/01/06 14:08:15;;;;;;;;;;;14.50;62.80;;;;;;5110245;27;20290;-65
2023/01/06 14:10:41;;;;;;;;;;;14.50;62.80;;;;;;5109220;28;20020;-71
2023/01/06 14:13:24;;;;;;;;;;;14.50;62.80;;;;;;5108893;28;19926;-65
2023/01/06 14:15:54;;;;;;;;;;;14.50;62.80;;;;;;5109170;28;19947;-65
2023/01/06 14:21:19;;;;;;;;;;;14.50;63.60;;;;;;5110333;27;20305;-65
2023/01/06 14:23:53;;;;;;;;;;;14.50;62.80;;;;;;5108936;28;19927;-65
2023/01/06 14:26:20;;;;;;;;;;;14.50;62.80;;;;;;5109199;28;19969;-71
2023/01/06 14:28:45;;;;;;;;;;;14.50;62.80;;;;;;5108846;28;19969;-65
2023/01/06 14:31:31;;;;;;;;;;;14.50;62.80;;;;;;5108876;28;19924;-65
2023/01/06 14:33:57;;;;;;;;;;;14.50;62.80;;;;;;5108806;28;19920;-65
2023/01/06 14:36:24;;;;;;;;;;;14.50;62.80;;;;;;5110082;28;19920;-65
2023/01/06 14:38:53;;;;;;;;;;;14.50;62.80;;;;;;5108847;28;19923;-65
2023/01/06 14:41:37;;;;;;;;;;;14.50;62.80;;;;;;5108663;28;20387;-65
2023/01/06 14:44:06;;;;;;;;;;;14.50;62.80;;;;;;5108753;28;19947;-65
2023/01/06 14:46:37;;;;;;;;;;;14.50;62.80;;;;;;5109792;28;19973;-65
2023/01/06 14:49:04;;;;;;;;;;;14.50;62.80;;;;;;5108800;28;19920;-65
2023/01/06 14:51:30;;;;;;;;;;;14.50;62.70;;;;;;5109714;28;19920;-71
2023/01/06 14:53:58;;;;;;;;;;;14.50;62.70;;;;;;5109715;28;19920;-65
2023/01/06 14:56:26;;;;;;;;;;;14.50;62.80;;;;;;5109683;28;20380;-72
2023/01/06 14:59:01;;;;;;;;;;;14.50;62.70;;;;;;5108073;28;19927;-72
2023/01/06 15:01:31;;;;;;;;;;;14.50;62.70;;;;;;5108237;28;19927;-72
2023/01/06 15:03:58;;;;;;;;;;;14.50;62.70;;;;;;5108503;28;19920;-72
2023/01/06 15:06:25;;;;;;;;;;;14.50;62.70;;;;;;5108480;28;19927;-65
2023/01/06 15:08:50;;;;;;;;;;;14.50;62.70;;;;;;5109464;28;20065;-65
2023/01/06 15:11:20;;;;;;;;;;;14.50;62.70;;;;;;5108351;28;20003;-65
2023/01/06 15:13:46;;;;;;;;;;;14.50;62.80;;;;;;5108320;28;19942;-65
2023/01/06 15:18:55;;;;;;;;;;;14.50;62.80;;;;;;5110081;27;19934;-65
2023/01/06 15:21:21;;;;;;;;;;;14.50;62.70;;;;;;5091978;28;20385;-65
2023/01/06 15:23:49;;;;;;;;;;;14.40;62.70;;;;;;5092054;28;19923;-71
2023/01/06 15:26:16;;;;;;;;;;;14.50;62.70;;;;;;5091999;28;19969;-66
2023/01/06 15:28:53;;;;;;;;;;;14.40;62.70;;;;;;5091788;28;20117;-66
2023/01/06 15:31:19;;;;;;;;;;;14.40;62.70;;;;;;5091449;28;19920;-65
2023/01/06 15:33:44;;;;;;;;;;;14.40;62.70;;;;;;5091562;28;19920;-65
2023/01/06 15:36:16;;;;;;;;;;;14.40;62.70;;;;;;5109138;28;19920;-66
2023/01/06 15:38:42;;;;;;;;;;;14.40;62.70;;;;;;5091468;28;19924;-65
2023/01/06 15:41:31;;;;;;;;;;;14.40;62.80;;;;;;5091987;28;20324;-65
2023/01/06 15:43:54;;;;;;;;;;;14.40;62.70;;;;;;5091176;28;19920;-66
2023/01/06 15:46:20;;;;;;;;;;;14.40;62.70;;;;;;5091827;28;19927;-65
2023/01/06 15:48:47;;;;;;;;;;;14.40;62.80;;;;;;5091186;28;20298;-66
2023/01/06 15:51:15;;;;;;;;;;;14.40;62.70;;;;;;5091034;28;19920;-66
2023/01/06 15:53:40;;;;;;;;;;;14.40;62.70;;;;;;5091109;28;19928;-72
2023/01/06 15:56:07;;;;;;;;;;;14.40;62.70;;;;;;5109451;28;19924;-65
2023/01/06 15:58:35;;;;;;;;;;;14.40;62.70;;;;;;5108103;28;19924;-65
2023/01/06 16:01:05;;;;;;;;;;;14.40;62.70;;;;;;5091223;28;20013;-65
2023/01/06 16:03:31;;;;;;;;;;;14.40;62.80;;;;;;5108110;28;19938;-65
2023/01/06 16:06:13;;;;;;;;;;;14.80;62.50;;;;;;5091471;28;19920;-72
2023/01/06 16:08:39;;;;;;;;;;;15.00;61.90;;;;;;5090712;28;20383;-66